Time;durP1;ratioP1;P1;durP2;ratioP2;P2;SDS_P1;SDS_P2;PMS_P1;PMS_P2;Temp;Humidity;BMP_temperature;BMP_pressure;BME280_temperature;BME280_humidity;BME280_pressure;Samples;Min_cycle;Max_cycle;Signal;HPM_P1;HPM_P2
2022/11/23 00:01:11;;;;;;;11.38;2.90;;;;;;;;;;5021630;28;20538;-67
2022/11/23 00:03:37;;;;;;;8.70;2.90;;;;;;;;;;5024216;28;20812;-67
2022/11/23 00:06:02;;;;;;;9.63;3.58;;;;;;;;;;5021163;28;20124;-67
2022/11/23 00:08:28;;;;;;;7.03;2.80;;;;;;;;;;5025226;28;20535;-68
2022/11/23 00:10:56;;;;;;;9.25;3.05;;;;;;;;;;5025013;28;20013;-67
2022/11/23 00:13:22;;;;;;;9.48;3.17;;;;;;;;;;5023945;28;20024;-66
2022/11/23 00:15:47;;;;;;;7.97;3.20;;;;;;;;;;5024499;28;20029;-68
2022/11/23 00:18:13;;;;;;;7.93;3.30;;;;;;;;;;5023855;28;20028;-68
2022/11/23 00:20:39;;;;;;;16.73;3.50;;;;;;;;;;5044034;28;20017;-67
2022/11/23 00:23:04;;;;;;;8.85;2.80;;;;;;;;;;5044423;28;20518;-67
2022/11/23 00:25:29;;;;;;;10.38;3.58;;;;;;;;;;5053104;28;20040;-67
2022/11/23 00:27:54;;;;;;;9.95;3.13;;;;;;;;;;5041682;28;20464;-68
2022/11/23 00:30:20;;;;;;;10.82;2.78;;;;;;;;;;5047631;28;20095;-67
2022/11/23 00:32:45;;;;;;;13.70;3.00;;;;;;;;;;5053662;28;20021;-67
2022/11/23 00:35:10;;;;;;;7.32;2.90;;;;;;;;;;5051152;28;20313;-66
2022/11/23 00:37:35;;;;;;;7.95;3.47;;;;;;;;;;5041987;28;20027;-66
2022/11/23 00:40:01;;;;;;;7.10;3.07;;;;;;;;;;5052255;28;20036;-67
2022/11/23 00:42:26;;;;;;;8.07;2.60;;;;;;;;;;5048626;28;20307;-67
2022/11/23 00:44:51;;;;;;;9.10;2.95;;;;;;;;;;5035027;28;20450;-67
2022/11/23 00:47:16;;;;;;;6.00;2.60;;;;;;;;;;5039574;28;20014;-68
2022/11/23 00:49:41;;;;;;;9.33;2.93;;;;;;;;;;5038052;28;20021;-66
2022/11/23 00:52:07;;;;;;;7.00;2.53;;;;;;;;;;5036724;28;20264;-67
2022/11/23 00:54:32;;;;;;;17.60;3.13;;;;;;;;;;5033954;28;20104;-67
2022/11/23 00:56:57;;;;;;;6.32;2.78;;;;;;;;;;5048444;28;20022;-67
2022/11/23 00:59:22;;;;;;;8.53;2.73;;;;;;;;;;5034400;28;20024;-67
2022/11/23 01:01:48;;;;;;;8.45;3.42;;;;;;;;;;5029389;28;20291;-67
2022/11/23 01:04:13;;;;;;;8.63;2.60;;;;;;;;;;5052951;28;20481;-67
2022/11/23 01:06:39;;;;;;;13.98;3.83;;;;;;;;;;5040429;28;20040;-67
2022/11/23 01:09:25;;;;;;;9.35;2.53;;;;;;;;;;5036197;28;20092;-68
2022/11/23 01:11:54;;;;;;;8.88;3.20;;;;;;;;;;5022947;28;20024;-67
2022/11/23 01:14:20;;;;;;;10.52;3.28;;;;;;;;;;5048147;28;20029;-68
2022/11/23 01:16:45;;;;;;;8.40;2.55;;;;;;;;;;5053598;28;20031;-67
2022/11/23 01:19:11;;;;;;;7.55;2.47;;;;;;;;;;5042314;28;20025;-67
2022/11/23 01:21:37;;;;;;;6.50;2.50;;;;;;;;;;5047791;28;20154;-68
2022/11/23 01:24:06;;;;;;;7.82;2.55;;;;;;;;;;5042481;28;20104;-68
2022/11/23 01:26:31;;;;;;;6.68;2.42;;;;;;;;;;5048527;28;20017;-68
2022/11/23 01:28:56;;;;;;;10.25;3.35;;;;;;;;;;5048229;28;20104;-68
2022/11/23 01:31:23;;;;;;;9.82;3.38;;;;;;;;;;5052948;28;20179;-68
2022/11/23 01:33:54;;;;;;;7.22;2.72;;;;;;;;;;5052333;28;20086;-69
2022/11/23 01:36:20;;;;;;;10.52;3.13;;;;;;;;;;5036185;28;20502;-68
2022/11/23 01:38:46;;;;;;;8.77;3.05;;;;;;;;;;5053239;28;20320;-68
2022/11/23 01:41:13;;;;;;;8.95;3.00;;;;;;;;;;5046312;28;20052;-67
2022/11/23 01:43:38;;;;;;;12.30;2.78;;;;;;;;;;5048409;28;20120;-68
2022/11/23 01:46:04;;;;;;;12.95;3.75;;;;;;;;;;5044506;28;20097;-68
2022/11/23 01:48:32;;;;;;;14.30;3.72;;;;;;;;;;5052411;28;20021;-69
2022/11/23 01:51:01;;;;;;;13.23;3.53;;;;;;;;;;5053129;28;20053;-68
2022/11/23 01:53:27;;;;;;;8.88;4.43;;;;;;;;;;5037604;28;20100;-68
2022/11/23 01:55:53;;;;;;;10.60;3.25;;;;;;;;;;5047644;28;20453;-69
2022/11/23 01:58:21;;;;;;;11.25;3.28;;;;;;;;;;5050640;28;20020;-69
2022/11/23 02:00:46;;;;;;;10.13;3.83;;;;;;;;;;5051182;28;20028;-67
2022/11/23 02:03:12;;;;;;;9.02;4.07;;;;;;;;;;5050455;28;20020;-69
2022/11/23 02:05:40;;;;;;;12.70;3.95;;;;;;;;;;5047633;28;20446;-68
2022/11/23 02:08:06;;;;;;;12.88;3.72;;;;;;;;;;5047459;28;20017;-67
2022/11/23 02:10:32;;;;;;;12.77;3.92;;;;;;;;;;5051336;28;20112;-68
2022/11/23 02:13:05;;;;;;;11.63;4.20;;;;;;;;;;5044904;28;20024;-68
2022/11/23 02:15:31;;;;;;;13.88;4.55;;;;;;;;;;5046761;28;20028;-68
2022/11/23 02:17:58;;;;;;;16.10;4.00;;;;;;;;;;5044388;28;20505;-69
2022/11/23 02:20:23;;;;;;;18.95;3.78;;;;;;;;;;5044919;28;20444;-67
2022/11/23 02:23:03;;;;;;;10.57;3.90;;;;;;;;;;5044236;28;20071;-68
2022/11/23 02:25:44;;;;;;;15.48;4.88;;;;;;;;;;5043424;28;20043;-68
2022/11/23 02:28:14;;;;;;;10.30;3.70;;;;;;;;;;5025453;28;20013;-68
2022/11/23 02:30:40;;;;;;;9.35;3.83;;;;;;;;;;5051403;28;20017;-69
2022/11/23 02:33:05;;;;;;;9.93;3.97;;;;;;;;;;5046733;28;20130;-68
2022/11/23 02:35:31;;;;;;;10.32;3.30;;;;;;;;;;5045658;28;20120;-69
2022/11/23 02:37:58;;;;;;;9.98;3.30;;;;;;;;;;5051513;28;20020;-68
2022/11/23 02:40:29;;;;;;;12.43;4.40;;;;;;;;;;5051913;28;20451;-68
2022/11/23 02:42:54;;;;;;;8.68;3.47;;;;;;;;;;5050394;28;20028;-67
2022/11/23 02:45:23;;;;;;;12.27;4.77;;;;;;;;;;5040909;28;20982;-67
2022/11/23 02:47:48;;;;;;;11.98;4.30;;;;;;;;;;5051582;28;20323;-67
2022/11/23 02:50:13;;;;;;;9.30;3.75;;;;;;;;;;5047698;28;20025;-68
2022/11/23 02:52:39;;;;;;;9.65;3.97;;;;;;;;;;5051893;28;20078;-68
2022/11/23 02:55:04;;;;;;;20.93;4.73;;;;;;;;;;5049948;28;20451;-68
2022/11/23 02:57:29;;;;;;;12.35;4.85;;;;;;;;;;5051487;28;20271;-68
2022/11/23 02:59:54;;;;;;;12.60;4.43;;;;;;;;;;5050703;28;20099;-67
2022/11/23 03:02:20;;;;;;;14.63;4.00;;;;;;;;;;5051875;28;20430;-69
2022/11/23 03:04:45;;;;;;;15.30;5.35;;;;;;;;;;5049763;28;20021;-69
2022/11/23 03:07:10;;;;;;;19.08;4.35;;;;;;;;;;5051670;28;20574;-70
2022/11/23 03:09:35;;;;;;;13.00;4.47;;;;;;;;;;5050785;28;20382;-70
2022/11/23 03:12:00;;;;;;;12.38;4.88;;;;;;;;;;5051118;28;20763;-70
2022/11/23 03:14:26;;;;;;;12.35;3.90;;;;;;;;;;5051425;28;20025;-67
2022/11/23 03:16:51;;;;;;;19.95;4.68;;;;;;;;;;5032203;28;20040;-68
2022/11/23 03:19:16;;;;;;;14.18;4.13;;;;;;;;;;5049240;28;20493;-69
2022/11/23 03:21:41;;;;;;;15.30;4.73;;;;;;;;;;5043190;28;20033;-68
2022/11/23 03:24:07;;;;;;;10.25;3.53;;;;;;;;;;5050752;28;20295;-69
2022/11/23 03:26:32;;;;;;;11.82;3.85;;;;;;;;;;5051293;28;20371;-68
2022/11/23 03:28:57;;;;;;;15.27;5.38;;;;;;;;;;5050370;28;20398;-68
2022/11/23 03:31:22;;;;;;;11.77;4.45;;;;;;;;;;5049990;28;20048;-69
2022/11/23 03:33:48;;;;;;;9.02;4.13;;;;;;;;;;5050563;28;20033;-69
2022/11/23 03:36:13;;;;;;;13.27;3.77;;;;;;;;;;5048808;28;20486;-68
2022/11/23 03:38:38;;;;;;;12.60;3.60;;;;;;;;;;5050346;28;20263;-68
2022/11/23 03:41:03;;;;;;;13.27;4.50;;;;;;;;;;5051063;28;20297;-68
2022/11/23 03:43:29;;;;;;;12.60;4.22;;;;;;;;;;5047428;28;20036;-69
2022/11/23 03:45:54;;;;;;;20.58;4.13;;;;;;;;;;5047138;28;20102;-69
2022/11/23 03:48:19;;;;;;;16.52;5.07;;;;;;;;;;5050076;28;20028;-68
2022/11/23 03:50:44;;;;;;;26.75;4.75;;;;;;;;;;5046585;28;20356;-68
2022/11/23 03:53:10;;;;;;;15.80;5.28;;;;;;;;;;5036983;28;20099;-69
2022/11/23 03:55:35;;;;;;;13.52;4.25;;;;;;;;;;5047150;28;20083;-70
2022/11/23 03:58:00;;;;;;;12.30;4.22;;;;;;;;;;5047999;28;20025;-69
2022/11/23 04:00:26;;;;;;;19.73;5.25;;;;;;;;;;5050634;28;20017;-69
2022/11/23 04:02:51;;;;;;;13.50;4.18;;;;;;;;;;5051074;28;20023;-69
2022/11/23 04:05:16;;;;;;;11.88;4.22;;;;;;;;;;5042873;28;20027;-69
2022/11/23 04:07:42;;;;;;;9.57;3.58;;;;;;;;;;5023475;28;20013;-68
2022/11/23 04:10:07;;;;;;;13.10;3.95;;;;;;;;;;5021057;28;20808;-69
2022/11/23 04:12:32;;;;;;;11.70;4.20;;;;;;;;;;5023255;28;20762;-69
2022/11/23 04:14:58;;;;;;;8.90;4.07;;;;;;;;;;5021394;28;20798;-71
2022/11/23 04:17:23;;;;;;;14.70;4.15;;;;;;;;;;5027228;28;20017;-69
2022/11/23 04:19:48;;;;;;;13.00;4.85;;;;;;;;;;5027664;28;20017;-70
2022/11/23 04:22:13;;;;;;;15.02;4.15;;;;;;;;;;5022871;28;20099;-69
2022/11/23 04:24:38;;;;;;;14.60;4.47;;;;;;;;;;5048302;28;20084;-69
2022/11/23 04:27:04;;;;;;;14.35;4.30;;;;;;;;;;5043406;28;20279;-69
2022/11/23 04:29:29;;;;;;;15.07;4.82;;;;;;;;;;5049019;28;20021;-69
2022/11/23 04:31:55;;;;;;;11.63;3.70;;;;;;;;;;5049431;28;20025;-68
2022/11/23 04:34:20;;;;;;;12.35;4.05;;;;;;;;;;5045375;28;20021;-69
2022/11/23 04:36:45;;;;;;;9.95;3.65;;;;;;;;;;5052973;28;20567;-69
2022/11/23 04:39:14;;;;;;;13.02;4.18;;;;;;;;;;5053345;28;20060;-68
2022/11/23 04:41:39;;;;;;;14.65;4.10;;;;;;;;;;5053571;28;20033;-69
2022/11/23 04:44:04;;;;;;;15.10;4.65;;;;;;;;;;5050825;28;20112;-69
2022/11/23 04:46:30;;;;;;;12.32;4.18;;;;;;;;;;5052440;28;20025;-70
2022/11/23 04:48:55;;;;;;;16.55;4.38;;;;;;;;;;5053747;28;20032;-70
2022/11/23 04:51:20;;;;;;;10.88;4.03;;;;;;;;;;5053868;28;20017;-69
2022/11/23 04:53:45;;;;;;;11.10;4.28;;;;;;;;;;5052095;28;20054;-70
2022/11/23 04:56:11;;;;;;;18.95;5.07;;;;;;;;;;5053597;28;20135;-69
2022/11/23 04:58:36;;;;;;;11.77;4.72;;;;;;;;;;5052655;28;20013;-68
2022/11/23 05:01:01;;;;;;;12.73;4.10;;;;;;;;;;5049472;28;20108;-68
2022/11/23 05:03:27;;;;;;;13.52;4.20;;;;;;;;;;5053435;28;20027;-68
2022/11/23 05:05:52;;;;;;;25.63;3.88;;;;;;;;;;5047666;28;20506;-68
2022/11/23 05:08:17;;;;;;;14.25;4.22;;;;;;;;;;5052442;28;20143;-68
2022/11/23 05:10:43;;;;;;;13.75;4.30;;;;;;;;;;5054022;28;20096;-69
2022/11/23 05:13:08;;;;;;;14.50;3.55;;;;;;;;;;5050528;28;20059;-74
2022/11/23 05:15:33;;;;;;;8.85;3.67;;;;;;;;;;5048646;28;20022;-68
2022/11/23 05:18:02;;;;;;;7.97;3.45;;;;;;;;;;5053366;28;20028;-68
2022/11/23 05:20:29;;;;;;;13.90;3.83;;;;;;;;;;5051541;28;20109;-68
2022/11/23 05:22:54;;;;;;;9.90;4.03;;;;;;;;;;5052468;28;20033;-69
2022/11/23 05:25:19;;;;;;;16.05;4.95;;;;;;;;;;5053017;28;20017;-68
2022/11/23 05:27:44;;;;;;;14.38;3.78;;;;;;;;;;5051321;28;20021;-68
2022/11/23 05:30:10;;;;;;;16.98;5.05;;;;;;;;;;5049484;28;20140;-69
2022/11/23 05:32:35;;;;;;;16.42;4.72;;;;;;;;;;5052080;28;20031;-69
2022/11/23 05:35:00;;;;;;;12.10;3.80;;;;;;;;;;5044548;28;20021;-69
2022/11/23 05:37:25;;;;;;;10.02;4.35;;;;;;;;;;5053029;28;20024;-68
2022/11/23 05:39:51;;;;;;;13.90;3.97;;;;;;;;;;5052853;28;20422;-70
2022/11/23 05:42:16;;;;;;;10.70;4.07;;;;;;;;;;5051880;28;20032;-70
2022/11/23 05:44:41;;;;;;;13.38;3.88;;;;;;;;;;5052748;28;20037;-70
2022/11/23 05:47:07;;;;;;;15.25;3.83;;;;;;;;;;5052750;28;20017;-69
2022/11/23 05:49:32;;;;;;;9.23;4.18;;;;;;;;;;5051796;28;20375;-70
2022/11/23 05:51:57;;;;;;;12.82;3.80;;;;;;;;;;5053019;28;20391;-70
2022/11/23 05:54:22;;;;;;;11.65;4.28;;;;;;;;;;5051989;28;20044;-70
2022/11/23 05:56:48;;;;;;;15.57;4.40;;;;;;;;;;5050644;28;20017;-70
2022/11/23 05:59:13;;;;;;;14.32;3.88;;;;;;;;;;5051789;28;20760;-70
2022/11/23 06:01:38;;;;;;;7.68;3.80;;;;;;;;;;5050856;28;20597;-70
2022/11/23 06:04:05;;;;;;;15.23;4.07;;;;;;;;;;5050041;28;20096;-70
2022/11/23 06:06:30;;;;;;;15.57;4.07;;;;;;;;;;5044510;28;20067;-70
2022/11/23 06:08:56;;;;;;;13.27;4.18;;;;;;;;;;5052315;28;20064;-70
2022/11/23 06:11:21;;;;;;;16.38;4.53;;;;;;;;;;5050415;28;20025;-70
2022/11/23 06:13:46;;;;;;;13.88;4.60;;;;;;;;;;5047695;28;20021;-70
2022/11/23 06:16:12;;;;;;;16.33;4.30;;;;;;;;;;5049894;28;20060;-71
2022/11/23 06:18:37;;;;;;;21.58;4.50;;;;;;;;;;5052293;28;20017;-70
2022/11/23 06:21:02;;;;;;;12.18;4.35;;;;;;;;;;5049753;28;20025;-70
2022/11/23 06:23:27;;;;;;;15.07;4.63;;;;;;;;;;5052198;28;20028;-70
2022/11/23 06:25:53;;;;;;;10.63;3.93;;;;;;;;;;5047519;28;20078;-70
2022/11/23 06:28:18;;;;;;;12.15;4.05;;;;;;;;;;5051761;28;20271;-70
2022/11/23 06:30:43;;;;;;;10.23;4.07;;;;;;;;;;5051492;28;20028;-70
2022/11/23 06:33:09;;;;;;;11.13;3.97;;;;;;;;;;5043074;28;20017;-71
2022/11/23 06:35:34;;;;;;;15.80;4.15;;;;;;;;;;5051372;28;20323;-68
2022/11/23 06:37:59;;;;;;;20.05;3.72;;;;;;;;;;5051820;28;20069;-72
2022/11/23 06:40:25;;;;;;;13.63;3.80;;;;;;;;;;5048576;28;20045;-71
2022/11/23 06:42:52;;;;;;;20.80;4.35;;;;;;;;;;5045687;28;20045;-70
2022/11/23 06:45:17;;;;;;;12.57;3.35;;;;;;;;;;5046545;28;20021;-72
2022/11/23 06:47:43;;;;;;;18.30;4.00;;;;;;;;;;5052505;28;20021;-70
2022/11/23 06:50:08;;;;;;;18.00;4.25;;;;;;;;;;5037320;28;20021;-70
2022/11/23 06:52:34;;;;;;;11.30;3.38;;;;;;;;;;5032920;28;20089;-71
2022/11/23 06:54:59;;;;;;;8.47;3.57;;;;;;;;;;5033226;28;20472;-71
2022/11/23 06:57:24;;;;;;;13.43;4.30;;;;;;;;;;5033405;28;20658;-71
2022/11/23 06:59:49;;;;;;;14.23;3.53;;;;;;;;;;5034885;28;20028;-71
2022/11/23 07:02:15;;;;;;;13.32;3.80;;;;;;;;;;5032893;28;20492;-70
2022/11/23 07:04:40;;;;;;;11.68;3.90;;;;;;;;;;5042988;28;20037;-70
2022/11/23 07:07:08;;;;;;;12.57;3.87;;;;;;;;;;5038988;28;20021;-71
2022/11/23 07:09:34;;;;;;;13.25;4.05;;;;;;;;;;5044930;28;20274;-72
2022/11/23 07:11:59;;;;;;;14.55;4.18;;;;;;;;;;5039048;28;20009;-68
2022/11/23 07:14:24;;;;;;;9.95;3.22;;;;;;;;;;5035344;28;20059;-71
2022/11/23 07:16:50;;;;;;;13.40;3.75;;;;;;;;;;5043123;28;20017;-70
2022/11/23 07:19:15;;;;;;;16.27;3.15;;;;;;;;;;5037112;28;20356;-71
2022/11/23 07:21:40;;;;;;;11.38;4.07;;;;;;;;;;5033335;28;20025;-71
2022/11/23 07:24:06;;;;;;;8.63;3.85;;;;;;;;;;5038741;28;20435;-71
2022/11/23 07:26:31;;;;;;;8.70;3.78;;;;;;;;;;5044144;28;20047;-72
2022/11/23 07:28:56;;;;;;;12.25;3.55;;;;;;;;;;5043037;28;20016;-70
2022/11/23 07:31:21;;;;;;;11.43;3.65;;;;;;;;;;5032888;28;20076;-70
2022/11/23 07:33:47;;;;;;;13.27;4.15;;;;;;;;;;5038538;28;20024;-71
2022/11/23 07:36:12;;;;;;;18.33;4.35;;;;;;;;;;5038068;28;20041;-72
2022/11/23 07:38:37;;;;;;;24.45;4.85;;;;;;;;;;5040173;28;20100;-71
2022/11/23 07:41:03;;;;;;;8.68;3.40;;;;;;;;;;5045268;28;20017;-70
2022/11/23 07:43:28;;;;;;;15.05;4.65;;;;;;;;;;5048583;28;20025;-70
2022/11/23 07:45:57;;;;;;;10.32;3.42;;;;;;;;;;5045843;28;20025;-69
2022/11/23 07:48:22;;;;;;;17.25;4.65;;;;;;;;;;5046195;28;20051;-72
2022/11/23 07:50:51;;;;;;;12.48;4.28;;;;;;;;;;5053162;28;20029;-69
2022/11/23 07:53:16;;;;;;;9.90;3.08;;;;;;;;;;5047329;28;20043;-70
2022/11/23 07:55:41;;;;;;;9.20;3.58;;;;;;;;;;5051252;28;20055;-70
2022/11/23 07:58:06;;;;;;;14.30;4.18;;;;;;;;;;5046246;28;20036;-69
2022/11/23 08:00:31;;;;;;;11.73;4.15;;;;;;;;;;5049778;28;20414;-70
2022/11/23 08:02:57;;;;;;;13.43;4.25;;;;;;;;;;5046008;28;20475;-70
2022/11/23 08:05:23;;;;;;;12.82;4.28;;;;;;;;;;5049685;28;20029;-70
2022/11/23 08:07:48;;;;;;;12.95;3.78;;;;;;;;;;5050389;28;20024;-70
2022/11/23 08:10:13;;;;;;;11.13;3.63;;;;;;;;;;5049093;28;20021;-67
2022/11/23 08:12:39;;;;;;;12.40;3.85;;;;;;;;;;5046401;28;20018;-69
2022/11/23 08:15:04;;;;;;;11.55;3.80;;;;;;;;;;5050309;28;20075;-68
2022/11/23 08:17:30;;;;;;;16.40;4.32;;;;;;;;;;5051349;28;20018;-69
2022/11/23 08:19:55;;;;;;;12.23;3.85;;;;;;;;;;5052493;28;20017;-69
2022/11/23 08:22:21;;;;;;;14.15;5.47;;;;;;;;;;5048325;28;20029;-69
2022/11/23 08:24:46;;;;;;;9.80;3.15;;;;;;;;;;5049157;28;20035;-70
2022/11/23 08:27:12;;;;;;;19.13;4.50;;;;;;;;;;5049478;28;20043;-68
2022/11/23 08:29:37;;;;;;;12.85;3.28;;;;;;;;;;5052628;28;20025;-70
2022/11/23 08:32:02;;;;;;;16.25;3.38;;;;;;;;;;5022696;28;20795;-70
2022/11/23 08:34:27;;;;;;;13.27;4.70;;;;;;;;;;5012732;28;20028;-67
2022/11/23 08:36:53;;;;;;;13.93;4.32;;;;;;;;;;5016224;28;20063;-68
2022/11/23 08:39:18;;;;;;;10.13;3.25;;;;;;;;;;5008869;28;20033;-69
2022/11/23 08:41:43;;;;;;;21.17;4.10;;;;;;;;;;5015948;28;20096;-67
2022/11/23 08:44:10;;;;;;;11.80;3.42;;;;;;;;;;5015132;28;20024;-69
2022/11/23 08:46:35;;;;;;;13.43;4.30;;;;;;;;;;5015245;28;20128;-69
2022/11/23 08:49:01;;;;;;;9.88;3.30;;;;;;;;;;5013236;28;20097;-70
2022/11/23 08:51:26;;;;;;;13.25;3.95;;;;;;;;;;5010223;28;20044;-69
2022/11/23 08:53:51;;;;;;;11.32;3.88;;;;;;;;;;5012921;28;20028;-68
2022/11/23 08:56:17;;;;;;;11.32;3.50;;;;;;;;;;5013178;28;20025;-69
2022/11/23 08:58:42;;;;;;;12.43;3.95;;;;;;;;;;5013294;28;20875;-69
2022/11/23 09:01:08;;;;;;;10.32;4.18;;;;;;;;;;5014374;28;20566;-69
2022/11/23 09:03:34;;;;;;;10.70;3.88;;;;;;;;;;5014965;28;20027;-69
2022/11/23 09:05:59;;;;;;;13.20;3.35;;;;;;;;;;5016536;28;20021;-68
2022/11/23 09:08:25;;;;;;;12.20;4.10;;;;;;;;;;5011310;28;20013;-67
2022/11/23 09:10:50;;;;;;;13.65;3.92;;;;;;;;;;5008955;28;20020;-70
2022/11/23 09:13:15;;;;;;;16.42;4.13;;;;;;;;;;5014056;28;20021;-68
2022/11/23 09:15:40;;;;;;;11.90;3.42;;;;;;;;;;5013822;28;20025;-67
2022/11/23 09:18:06;;;;;;;10.52;3.13;;;;;;;;;;5014657;28;20039;-70
2022/11/23 09:20:31;;;;;;;13.50;3.28;;;;;;;;;;5045149;28;21671;-69
2022/11/23 09:22:56;;;;;;;15.05;3.17;;;;;;;;;;5045181;28;20382;-69
2022/11/23 09:25:22;;;;;;;7.70;2.93;;;;;;;;;;5043331;28;20033;-68
2022/11/23 09:27:48;;;;;;;12.57;3.70;;;;;;;;;;5045114;28;20279;-70
2022/11/23 09:30:13;;;;;;;13.27;3.78;;;;;;;;;;5043248;28;20040;-69
2022/11/23 09:32:38;;;;;;;11.00;2.85;;;;;;;;;;5045866;28;20024;-69
2022/11/23 09:35:04;;;;;;;9.98;3.45;;;;;;;;;;5043464;28;20021;-68
2022/11/23 09:37:29;;;;;;;12.75;3.42;;;;;;;;;;5050556;28;20017;-68
2022/11/23 09:39:54;;;;;;;9.30;3.67;;;;;;;;;;5039507;28;20017;-70
2022/11/23 09:42:29;;;;;;;10.32;3.25;;;;;;;;;;5052707;28;20037;-70
2022/11/23 09:45:05;;;;;;;10.60;2.78;;;;;;;;;;5044867;28;20029;-70
2022/11/23 09:47:40;;;;;;;13.77;3.47;;;;;;;;;;5051881;28;20074;-69
2022/11/23 09:50:05;;;;;;;11.40;3.30;;;;;;;;;;5047114;28;20032;-68
2022/11/23 09:52:31;;;;;;;10.87;2.97;;;;;;;;;;5045012;28;20092;-70
2022/11/23 09:54:59;;;;;;;10.10;3.03;;;;;;;;;;5042647;28;20354;-69
2022/11/23 09:57:27;;;;;;;9.35;3.20;;;;;;;;;;5049774;28;20025;-69
2022/11/23 09:59:58;;;;;;;6.95;3.10;;;;;;;;;;5050186;28;20025;-70
2022/11/23 10:02:25;;;;;;;9.40;3.08;;;;;;;;;;5051076;28;20032;-70
2022/11/23 10:04:54;;;;;;;10.32;3.35;;;;;;;;;;5036738;28;20476;-68
2022/11/23 10:07:22;;;;;;;7.90;3.58;;;;;;;;;;5034979;28;20033;-70
2022/11/23 10:09:56;;;;;;;10.25;2.78;;;;;;;;;;5045294;28;20029;-68
2022/11/23 10:12:27;;;;;;;9.57;3.03;;;;;;;;;;5036757;28;20025;-68
2022/11/23 10:15:08;;;;;;;7.03;2.65;;;;;;;;;;5038356;28;20076;-68
2022/11/23 10:17:33;;;;;;;8.70;3.00;;;;;;;;;;5042026;28;20037;-69
2022/11/23 10:20:11;;;;;;;8.63;3.10;;;;;;;;;;5032524;28;20030;-69
2022/11/23 10:22:50;;;;;;;6.32;2.28;;;;;;;;;;5033132;28;20296;-69
2022/11/23 10:25:22;;;;;;;9.38;2.63;;;;;;;;;;5043078;28;20017;-69
2022/11/23 10:27:48;;;;;;;10.40;2.65;;;;;;;;;;5037294;28;20091;-69
2022/11/23 10:30:15;;;;;;;5.25;1.95;;;;;;;;;;5040020;28;20045;-69
2022/11/23 10:32:40;;;;;;;4.35;2.08;;;;;;;;;;5040660;28;20116;-70
2022/11/23 10:35:13;;;;;;;7.13;2.23;;;;;;;;;;5037863;28;20040;-68
2022/11/23 10:37:39;;;;;;;5.00;2.17;;;;;;;;;;5037523;28;20774;-68
2022/11/23 10:40:18;;;;;;;6.97;2.03;;;;;;;;;;5048891;28;20025;-68
2022/11/23 10:42:46;;;;;;;6.30;2.15;;;;;;;;;;5042262;28;20087;-68
2022/11/23 10:45:25;;;;;;;3.90;1.63;;;;;;;;;;5034814;28;20030;-69
2022/11/23 10:47:51;;;;;;;7.70;2.05;;;;;;;;;;5034055;28;20045;-69
2022/11/23 10:50:39;;;;;;;8.23;2.33;;;;;;;;;;5038924;28;20574;-69
2022/11/23 10:53:04;;;;;;;5.90;2.10;;;;;;;;;;5050756;28;20013;-69
2022/11/23 10:55:30;;;;;;;4.90;1.97;;;;;;;;;;5045048;28;20035;-68
2022/11/23 10:57:56;;;;;;;8.15;2.33;;;;;;;;;;5042456;28;20259;-69
2022/11/23 11:00:22;;;;;;;10.88;2.05;;;;;;;;;;5041005;28;20035;-67
2022/11/23 11:02:49;;;;;;;4.65;2.08;;;;;;;;;;5048004;28;20029;-67
2022/11/23 11:05:28;;;;;;;7.50;1.83;;;;;;;;;;5033385;28;20028;-69
2022/11/23 11:07:55;;;;;;;6.15;2.03;;;;;;;;;;5038734;28;20029;-68
2022/11/23 11:10:37;;;;;;;7.38;1.90;;;;;;;;;;5046792;28;20028;-69
2022/11/23 11:13:03;;;;;;;6.95;1.70;;;;;;;;;;5041002;28;20078;-68
2022/11/23 11:15:29;;;;;;;7.80;2.35;;;;;;;;;;5051429;28;20028;-67
2022/11/23 11:17:55;;;;;;;7.20;2.05;;;;;;;;;;5047700;28;20017;-69
2022/11/23 11:20:24;;;;;;;6.13;1.45;;;;;;;;;;5037030;28;20045;-69
2022/11/23 11:22:49;;;;;;;5.35;2.08;;;;;;;;;;5037307;28;20025;-68
2022/11/23 11:25:29;;;;;;;5.20;1.67;;;;;;;;;;5040032;28;20022;-68
2022/11/23 11:27:55;;;;;;;9.45;2.10;;;;;;;;;;5040264;28;20028;-68
2022/11/23 11:30:22;;;;;;;7.15;1.88;;;;;;;;;;5045649;28;20025;-69
2022/11/23 11:32:47;;;;;;;5.95;2.03;;;;;;;;;;5039616;28;20014;-68
2022/11/23 11:35:15;;;;;;;8.73;1.83;;;;;;;;;;5043814;28;20039;-68
2022/11/23 11:37:44;;;;;;;4.22;1.40;;;;;;;;;;5049970;28;20025;-68
2022/11/23 11:40:28;;;;;;;5.97;1.73;;;;;;;;;;5054900;28;20460;-69
2022/11/23 11:43:10;;;;;;;4.43;1.95;;;;;;;;;;5054246;28;20028;-68
2022/11/23 11:45:37;;;;;;;9.57;1.92;;;;;;;;;;5054437;28;20033;-69
2022/11/23 11:48:09;;;;;;;4.90;1.38;;;;;;;;;;5049317;28;20028;-68
2022/11/23 11:50:46;;;;;;;6.75;2.17;;;;;;;;;;5052387;28;20075;-68
2022/11/23 11:53:13;;;;;;;5.55;1.45;;;;;;;;;;5045854;28;20014;-68
2022/11/23 11:55:57;;;;;;;6.43;2.20;;;;;;;;;;5054445;28;20013;-68
2022/11/23 11:58:25;;;;;;;5.70;1.65;;;;;;;;;;5048886;28;20368;-69
2022/11/23 12:01:06;;;;;;;5.22;1.92;;;;;;;;;;5043577;28;20434;-68
2022/11/23 12:03:43;;;;;;;3.40;1.27;;;;;;;;;;5042763;28;20029;-68
2022/11/23 12:06:40;;;;;;;13.65;2.30;;;;;;;;;;5050794;28;21094;-69
2022/11/23 12:09:10;;;;;;;4.93;2.15;;;;;;;;;;5005408;28;20101;-69
2022/11/23 12:11:36;;;;;;;4.25;1.63;;;;;;;;;;5049846;28;20533;-68
2022/11/23 12:14:02;;;;;;;6.43;1.48;;;;;;;;;;5044200;28;20026;-68
2022/11/23 12:16:46;;;;;;;5.32;1.60;;;;;;;;;;5050497;28;20104;-70
2022/11/23 12:19:37;;;;;;;3.97;1.40;;;;;;;;;;5046807;28;20017;-70
2022/11/23 12:22:05;;;;;;;6.70;1.80;;;;;;;;;;5047071;28;20128;-69
2022/11/23 12:24:36;;;;;;;4.80;1.55;;;;;;;;;;5048637;28;20378;-69
2022/11/23 12:27:14;;;;;;;4.65;1.17;;;;;;;;;;5049186;28;20029;-69
2022/11/23 12:29:48;;;;;;;4.32;1.67;;;;;;;;;;5046350;28;20066;-70
2022/11/23 12:32:25;;;;;;;4.35;1.60;;;;;;;;;;5053730;28;20375;-68
2022/11/23 12:35:11;;;;;;;6.65;1.45;;;;;;;;;;5040513;28;20108;-79
2022/11/23 12:37:55;;;;;;;3.40;1.35;;;;;;;;;;5040983;28;20083;-68
2022/11/23 12:40:44;;;;;;;3.65;1.40;;;;;;;;;;5044314;28;20028;-69
2022/11/23 12:43:14;;;;;;;3.35;1.35;;;;;;;;;;5042114;28;20033;-73
2022/11/23 12:45:52;;;;;;;5.53;1.48;;;;;;;;;;5047295;28;20021;-69
2022/11/23 12:48:17;;;;;;;4.00;1.48;;;;;;;;;;5039178;28;20021;-69
2022/11/23 12:51:02;;;;;;;4.72;1.55;;;;;;;;;;5047454;28;20043;-68
2022/11/23 12:53:31;;;;;;;4.88;1.75;;;;;;;;;;5050531;28;20092;-69
2022/11/23 12:56:06;;;;;;;10.07;1.73;;;;;;;;;;5040724;28;20349;-69
2022/11/23 12:58:32;;;;;;;4.03;1.50;;;;;;;;;;5041714;28;20029;-68
2022/11/23 13:01:04;;;;;;;9.02;1.80;;;;;;;;;;5044554;28;20100;-68
2022/11/23 13:03:30;;;;;;;5.25;1.88;;;;;;;;;;5041691;28;20479;-68
2022/11/23 13:06:14;;;;;;;3.77;1.53;;;;;;;;;;5045424;28;20028;-68
2022/11/23 13:08:48;;;;;;;11.32;1.60;;;;;;;;;;5043928;28;20268;-68
2022/11/23 13:11:13;;;;;;;8.23;2.30;;;;;;;;;;5039884;28;20013;-68
2022/11/23 13:13:38;;;;;;;6.27;1.90;;;;;;;;;;5044023;28;20036;-71
2022/11/23 13:16:04;;;;;;;7.03;1.70;;;;;;;;;;5036830;28;20268;-70
2022/11/23 13:18:32;;;;;;;5.47;1.60;;;;;;;;;;5039240;28;20268;-70
2022/11/23 13:21:16;;;;;;;3.95;1.50;;;;;;;;;;5035885;28;20359;-69
2022/11/23 13:23:41;;;;;;;4.27;1.43;;;;;;;;;;5034575;28;20052;-69
2022/11/23 13:26:17;;;;;;;6.78;2.33;;;;;;;;;;5035633;28;20280;-69
2022/11/23 13:28:43;;;;;;;8.23;1.42;;;;;;;;;;5043158;28;20037;-70
2022/11/23 13:31:14;;;;;;;3.50;1.27;;;;;;;;;;5037879;28;20439;-69
2022/11/23 13:33:40;;;;;;;4.95;1.40;;;;;;;;;;5038496;28;20029;-68
2022/11/23 13:36:08;;;;;;;8.05;1.80;;;;;;;;;;5049312;28;20460;-68
2022/11/23 13:38:41;;;;;;;2.70;1.27;;;;;;;;;;5035432;28;20449;-69
2022/11/23 13:41:24;;;;;;;4.85;1.50;;;;;;;;;;5035304;28;20028;-69
2022/11/23 13:43:50;;;;;;;10.35;1.70;;;;;;;;;;5031468;28;20083;-69
2022/11/23 13:46:23;;;;;;;5.32;1.70;;;;;;;;;;5037428;28;20024;-68
2022/11/23 13:48:53;;;;;;;3.97;1.38;;;;;;;;;;5034566;28;20022;-69
2022/11/23 13:51:22;;;;;;;4.70;1.58;;;;;;;;;;5035750;28;20024;-68
2022/11/23 13:54:10;;;;;;;11.82;1.55;;;;;;;;;;5042295;28;20755;-71
2022/11/23 13:56:38;;;;;;;5.03;1.70;;;;;;;;;;5035316;28;20044;-73
2022/11/23 13:59:39;;;;;;;3.20;1.45;;;;;;;;;;5029377;28;20021;-71
2022/11/23 14:02:07;;;;;;;5.38;1.48;;;;;;;;;;4987711;28;20088;-69
2022/11/23 14:04:37;;;;;;;5.60;1.75;;;;;;;;;;5031424;28;20626;-71
2022/11/23 14:07:08;;;;;;;5.93;1.67;;;;;;;;;;5033920;28;20479;-72
2022/11/23 14:09:33;;;;;;;7.60;2.25;;;;;;;;;;5033760;28;20483;-67
2022/11/23 14:12:05;;;;;;;5.67;2.03;;;;;;;;;;5032329;28;20024;-72
2022/11/23 14:14:52;;;;;;;10.32;2.90;;;;;;;;;;5035934;28;20275;-67
2022/11/23 14:17:17;;;;;;;4.35;1.85;;;;;;;;;;5039185;28;20471;-68
2022/11/23 14:19:58;;;;;;;6.30;2.60;;;;;;;;;;5037058;28;20087;-68
2022/11/23 14:22:32;;;;;;;7.65;2.38;;;;;;;;;;5037306;28;20311;-68
2022/11/23 14:25:03;;;;;;;6.22;2.17;;;;;;;;;;5039124;28;20017;-67
2022/11/23 14:27:32;;;;;;;8.82;3.08;;;;;;;;;;5036196;28;20050;-68
2022/11/23 14:29:57;;;;;;;6.93;2.05;;;;;;;;;;5033742;28;20021;-67
2022/11/23 14:32:45;;;;;;;9.93;2.47;;;;;;;;;;5035518;28;20024;-68
2022/11/23 14:35:15;;;;;;;6.38;1.88;;;;;;;;;;5025162;28;20178;-67
2022/11/23 14:37:59;;;;;;;6.28;2.78;;;;;;;;;;5035306;28;20098;-67
2022/11/23 14:40:27;;;;;;;8.07;2.95;;;;;;;;;;5037166;28;20096;-66